Terminal Aerodrome Forecast
Issued by NWS

Home | Current Version | Previous Version | Text Only | Print | Product List | Glossary On
Versions: 1 2 3 4 5 6 7 8 9 10 11 12 13 14 15 16 17 18 19 20 21 22 23 24 25
000
FTUS41 KCAR 010800 AAC
TAFHUL
TAF AMD
KHUL 010806Z 0108/0206 VRB02KT 3SM BR BKN008
     FM011000 VRB02KT 1SM BR BKN004
     FM011130 VRB03KT 3SM BR SCT008
     FM011230 VRB03KT P6SM SCT020
     FM011800 20006KT P6SM VCSH BKN040
     FM020300 20007KT P6SM SCT050
     FM020500 20006KT 1SM BR SCT025=

USA.gov is the U.S. government's official web portal to all federal, state and local government web resources and services.